Time;durP1;ratioP1;P1;durP2;ratioP2;P2;SDS_P1;SDS_P2;PMS_P1;PMS_P2;Temp;Humidity;BMP_temperature;BMP_pressure;BME280_temperature;BME280_humidity;BME280_pressure;Samples;Min_cycle;Max_cycle;Signal;HPM_P1;HPM_P2
2023/05/19 00:02:24;;;;;;;;;;;17.60;51.30;;;;;;5100085;28;19946;-81
2023/05/19 00:04:50;;;;;;;;;;;17.50;51.30;;;;;;5119471;28;19918;-81
2023/05/19 00:07:18;;;;;;;;;;;17.50;51.30;;;;;;5101205;28;19907;-81
2023/05/19 00:09:43;;;;;;;;;;;17.50;51.30;;;;;;5135620;27;19927;-81
2023/05/19 00:12:09;;;;;;;;;;;17.50;51.30;;;;;;5119269;28;19907;-81
2023/05/19 00:14:35;;;;;;;;;;;17.50;51.30;;;;;;5135666;27;19916;-81
2023/05/19 00:17:06;;;;;;;;;;;17.50;51.30;;;;;;5101469;28;20257;-81
2023/05/19 00:19:32;;;;;;;;;;;17.40;51.30;;;;;;5101746;28;19911;-81
2023/05/19 00:21:57;;;;;;;;;;;17.40;51.40;;;;;;5118151;28;20100;-81
2023/05/19 00:24:23;;;;;;;;;;;17.40;51.40;;;;;;5098527;28;19943;-81
2023/05/19 00:26:49;;;;;;;;;;;17.40;51.40;;;;;;5099120;28;19908;-81
2023/05/19 00:29:18;;;;;;;;;;;17.40;51.40;;;;;;5098622;28;19915;-81
2023/05/19 00:31:43;;;;;;;;;;;17.40;51.50;;;;;;5098205;28;19907;-81
2023/05/19 00:34:09;;;;;;;;;;;17.40;51.50;;;;;;5115901;28;19908;-81
2023/05/19 00:36:34;;;;;;;;;;;17.40;51.50;;;;;;5098558;28;19965;-81
2023/05/19 00:39:00;;;;;;;;;;;17.40;51.50;;;;;;5099641;28;19908;-81
2023/05/19 00:41:25;;;;;;;;;;;17.40;51.60;;;;;;5117150;28;20264;-81
2023/05/19 00:43:51;;;;;;;;;;;17.30;51.50;;;;;;5100184;28;19932;-81
2023/05/19 00:46:17;;;;;;;;;;;17.30;51.50;;;;;;5116678;28;19912;-81
2023/05/19 00:48:44;;;;;;;;;;;17.30;51.60;;;;;;5117446;28;19907;-81
2023/05/19 00:51:13;;;;;;;;;;;17.30;51.60;;;;;;5100167;28;19943;-81
2023/05/19 00:53:40;;;;;;;;;;;17.30;51.60;;;;;;5100190;28;19907;-81
2023/05/19 00:56:06;;;;;;;;;;;17.30;51.70;;;;;;5099904;28;19920;-81
2023/05/19 00:58:32;;;;;;;;;;;17.30;51.70;;;;;;5102371;28;19915;-81
2023/05/19 01:01:02;;;;;;;;;;;17.30;51.70;;;;;;5118839;28;19918;-81
2023/05/19 01:03:33;;;;;;;;;;;17.20;51.70;;;;;;5100896;28;19957;-81
2023/05/19 01:06:08;;;;;;;;;;;17.20;51.70;;;;;;5100428;28;20003;-81
2023/05/19 01:08:34;;;;;;;;;;;17.20;51.80;;;;;;5135307;27;20202;-81
2023/05/19 01:11:00;;;;;;;;;;;17.20;51.80;;;;;;5118737;28;20299;-81
2023/05/19 01:13:28;;;;;;;;;;;17.20;51.80;;;;;;5101118;28;19908;-81
2023/05/19 01:16:05;;;;;;;;;;;17.20;51.80;;;;;;5100732;28;19911;-81
2023/05/19 01:18:37;;;;;;;;;;;17.20;52.20;;;;;;5118385;28;20284;-81
2023/05/19 01:21:12;;;;;;;;;;;17.10;51.80;;;;;;5101189;28;19908;-81
2023/05/19 01:23:46;;;;;;;;;;;17.10;51.90;;;;;;5102965;28;20108;-81
2023/05/19 01:26:25;;;;;;;;;;;17.10;51.90;;;;;;5104649;28;19915;-81
2023/05/19 01:28:51;;;;;;;;;;;17.10;51.90;;;;;;5122422;28;19908;-81
2023/05/19 01:31:19;;;;;;;;;;;17.10;51.90;;;;;;5105184;28;19908;-81
2023/05/19 01:33:46;;;;;;;;;;;17.10;52.00;;;;;;5122417;28;19942;-81
2023/05/19 01:36:12;;;;;;;;;;;17.10;52.00;;;;;;5103924;28;20265;-81
2023/05/19 01:38:38;;;;;;;;;;;17.00;52.00;;;;;;5104971;28;19916;-81
2023/05/19 01:41:05;;;;;;;;;;;17.00;52.00;;;;;;5104476;28;20011;-82
2023/05/19 01:43:31;;;;;;;;;;;17.00;52.40;;;;;;5103529;28;19919;-82
2023/05/19 01:45:57;;;;;;;;;;;17.00;52.00;;;;;;5103833;28;19919;-81
2023/05/19 01:48:23;;;;;;;;;;;17.00;52.00;;;;;;5104322;28;19908;-81
2023/05/19 01:50:49;;;;;;;;;;;17.00;52.00;;;;;;5104957;28;19990;-81
2023/05/19 01:53:15;;;;;;;;;;;17.00;52.00;;;;;;5104387;28;20044;-81
2023/05/19 01:55:48;;;;;;;;;;;17.00;52.10;;;;;;5104750;28;19918;-81
2023/05/19 01:58:20;;;;;;;;;;;16.90;52.10;;;;;;5103571;28;19920;-81
2023/05/19 02:00:54;;;;;;;;;;;16.90;52.10;;;;;;5104046;28;20265;-81
2023/05/19 02:03:41;;;;;;;;;;;16.90;52.10;;;;;;5121639;28;19908;-81
2023/05/19 02:06:25;;;;;;;;;;;16.90;52.10;;;;;;5105021;28;19919;-81
2023/05/19 02:09:01;;;;;;;;;;;16.90;52.20;;;;;;5103909;28;19918;-81
2023/05/19 02:11:39;;;;;;;;;;;16.90;52.20;;;;;;5121217;28;19912;-81
2023/05/19 02:14:08;;;;;;;;;;;16.90;52.20;;;;;;5102236;28;19918;-81
2023/05/19 02:16:35;;;;;;;;;;;16.80;52.20;;;;;;5101958;28;19962;-81
2023/05/19 02:19:00;;;;;;;;;;;16.80;52.20;;;;;;5119983;28;19946;-81
2023/05/19 02:21:26;;;;;;;;;;;16.80;52.20;;;;;;5120058;28;19908;-81
2023/05/19 02:23:52;;;;;;;;;;;16.80;52.30;;;;;;5102215;28;19908;-81
2023/05/19 02:26:17;;;;;;;;;;;16.80;52.30;;;;;;5121284;28;19908;-82
2023/05/19 02:28:43;;;;;;;;;;;16.80;52.30;;;;;;5103151;28;19915;-81
2023/05/19 02:31:09;;;;;;;;;;;16.80;52.30;;;;;;5103224;28;20212;-81
2023/05/19 02:33:35;;;;;;;;;;;16.80;52.30;;;;;;5121255;28;19939;-82
2023/05/19 02:36:00;;;;;;;;;;;16.80;52.30;;;;;;5103490;28;19927;-82
2023/05/19 02:38:26;;;;;;;;;;;16.70;52.30;;;;;;5103991;28;19911;-81
2023/05/19 02:40:52;;;;;;;;;;;16.70;52.30;;;;;;5103812;28;19955;-80
2023/05/19 02:43:17;;;;;;;;;;;16.70;52.30;;;;;;5137029;27;19919;-82
2023/05/19 02:45:43;;;;;;;;;;;16.70;52.40;;;;;;5102344;28;19943;-81
2023/05/19 02:48:09;;;;;;;;;;;16.70;52.40;;;;;;5102735;28;20318;-81
2023/05/19 02:50:35;;;;;;;;;;;16.70;52.40;;;;;;5102359;28;19950;-81
2023/05/19 02:53:01;;;;;;;;;;;16.70;52.40;;;;;;5102495;28;19919;-81
2023/05/19 02:55:27;;;;;;;;;;;16.70;52.40;;;;;;5101874;28;19911;-82
2023/05/19 02:57:52;;;;;;;;;;;16.70;52.40;;;;;;5119228;28;19922;-81
2023/05/19 03:00:18;;;;;;;;;;;16.70;52.40;;;;;;5102742;28;19908;-81
2023/05/19 03:02:44;;;;;;;;;;;16.60;52.40;;;;;;5102291;28;20185;-82
2023/05/19 03:05:10;;;;;;;;;;;16.60;52.40;;;;;;5102335;28;19918;-81
2023/05/19 03:07:36;;;;;;;;;;;16.60;52.50;;;;;;5102240;28;19907;-81
2023/05/19 03:10:03;;;;;;;;;;;16.60;52.50;;;;;;5101261;28;20257;-82
2023/05/19 03:12:28;;;;;;;;;;;16.60;52.50;;;;;;5120580;28;20250;-81
2023/05/19 03:14:54;;;;;;;;;;;16.60;52.50;;;;;;5102020;28;19914;-81
2023/05/19 03:17:19;;;;;;;;;;;16.60;52.50;;;;;;5119656;28;19916;-82
2023/05/19 03:19:45;;;;;;;;;;;16.60;52.50;;;;;;5119695;28;19968;-82
2023/05/19 03:22:11;;;;;;;;;;;16.60;52.90;;;;;;5101976;28;20258;-82
2023/05/19 03:24:36;;;;;;;;;;;16.50;52.50;;;;;;5101208;28;19919;-81
2023/05/19 03:27:04;;;;;;;;;;;16.50;52.50;;;;;;5119118;28;20349;-82
2023/05/19 03:29:30;;;;;;;;;;;16.50;52.50;;;;;;5101926;28;20020;-82
2023/05/19 03:31:56;;;;;;;;;;;16.50;52.60;;;;;;5099189;28;20048;-82
2023/05/19 03:34:21;;;;;;;;;;;16.50;52.60;;;;;;5117740;28;19943;-82
2023/05/19 03:36:49;;;;;;;;;;;16.50;52.60;;;;;;5098600;28;19930;-81
2023/05/19 03:39:15;;;;;;;;;;;16.50;52.60;;;;;;5099048;28;19934;-82
2023/05/19 03:41:41;;;;;;;;;;;16.50;52.60;;;;;;5098958;28;20057;-81
2023/05/19 03:44:06;;;;;;;;;;;16.50;52.60;;;;;;5116066;28;19959;-81
2023/05/19 03:46:32;;;;;;;;;;;16.50;52.60;;;;;;5132678;27;19916;-81
2023/05/19 03:48:57;;;;;;;;;;;16.40;52.60;;;;;;5097940;28;19916;-80
2023/05/19 03:51:23;;;;;;;;;;;16.40;52.60;;;;;;5097815;28;19908;-81
2023/05/19 03:53:48;;;;;;;;;;;16.40;52.60;;;;;;5116365;28;20043;-81
2023/05/19 03:56:15;;;;;;;;;;;16.40;52.60;;;;;;5098090;28;20018;-81
2023/05/19 03:58:43;;;;;;;;;;;16.40;52.60;;;;;;5130188;27;20333;-81
2023/05/19 04:01:10;;;;;;;;;;;16.40;52.60;;;;;;5098014;28;19908;-81
2023/05/19 04:03:35;;;;;;;;;;;16.40;52.60;;;;;;5097696;28;19994;-81
2023/05/19 04:06:01;;;;;;;;;;;16.40;52.60;;;;;;5132183;27;19991;-81
2023/05/19 04:08:27;;;;;;;;;;;16.40;52.60;;;;;;5098047;28;20070;-81
2023/05/19 04:10:52;;;;;;;;;;;16.40;52.60;;;;;;5115736;28;19907;-81
2023/05/19 04:13:18;;;;;;;;;;;16.40;52.60;;;;;;5132520;27;20280;-81
2023/05/19 04:15:44;;;;;;;;;;;16.40;52.60;;;;;;5097814;28;19920;-81
2023/05/19 04:18:10;;;;;;;;;;;16.40;52.60;;;;;;5097543;28;19908;-81
2023/05/19 04:20:35;;;;;;;;;;;16.40;52.60;;;;;;5097504;28;19911;-81
2023/05/19 04:23:01;;;;;;;;;;;16.40;52.60;;;;;;5097036;28;19947;-81
2023/05/19 04:25:27;;;;;;;;;;;16.40;52.60;;;;;;5097125;28;20256;-81
2023/05/19 04:27:56;;;;;;;;;;;16.40;52.60;;;;;;5098532;28;19908;-81
2023/05/19 04:30:23;;;;;;;;;;;16.50;52.60;;;;;;5097269;28;20397;-81
2023/05/19 04:32:49;;;;;;;;;;;16.50;52.60;;;;;;5114641;28;20041;-81
2023/05/19 04:35:16;;;;;;;;;;;16.50;52.60;;;;;;5097017;28;19961;-81
2023/05/19 04:37:45;;;;;;;;;;;16.50;52.60;;;;;;5096440;28;20269;-81
2023/05/19 04:40:11;;;;;;;;;;;16.50;52.60;;;;;;5094811;28;19908;-81
2023/05/19 04:42:40;;;;;;;;;;;16.50;52.50;;;;;;5094331;28;20296;-81
2023/05/19 04:45:07;;;;;;;;;;;16.50;52.50;;;;;;5095671;28;19908;-81
2023/05/19 04:47:35;;;;;;;;;;;16.50;52.40;;;;;;5095934;28;20073;-81
2023/05/19 04:50:01;;;;;;;;;;;16.60;52.50;;;;;;5095981;28;19915;-81
2023/05/19 04:52:27;;;;;;;;;;;16.60;52.50;;;;;;5096096;28;19911;-81
2023/05/19 04:54:53;;;;;;;;;;;16.60;52.50;;;;;;5097167;28;19919;-81
2023/05/19 04:57:19;;;;;;;;;;;16.60;52.40;;;;;;5132256;27;19916;-81
2023/05/19 04:59:45;;;;;;;;;;;16.60;52.30;;;;;;5101056;28;19915;-81
2023/05/19 05:02:10;;;;;;;;;;;16.60;52.20;;;;;;5118904;28;19931;-81
2023/05/19 05:04:39;;;;;;;;;;;16.70;52.30;;;;;;5099700;28;20180;-81
2023/05/19 05:07:05;;;;;;;;;;;16.70;52.30;;;;;;5117172;28;19908;-81
2023/05/19 05:09:30;;;;;;;;;;;16.70;52.20;;;;;;5116922;28;20143;-81
2023/05/19 05:11:56;;;;;;;;;;;16.80;52.20;;;;;;5100664;28;19907;-81
2023/05/19 05:14:22;;;;;;;;;;;16.80;52.10;;;;;;5100448;28;20289;-81
2023/05/19 05:16:48;;;;;;;;;;;16.90;52.00;;;;;;5118970;28;19998;-81
2023/05/19 05:19:13;;;;;;;;;;;16.90;52.00;;;;;;5100578;28;19973;-81
2023/05/19 05:21:40;;;;;;;;;;;17.00;52.00;;;;;;5100124;28;19908;-81
2023/05/19 05:24:06;;;;;;;;;;;17.00;51.80;;;;;;5116811;28;19908;-81
2023/05/19 05:26:32;;;;;;;;;;;17.10;51.80;;;;;;5098776;28;19919;-81
2023/05/19 05:28:57;;;;;;;;;;;17.10;51.70;;;;;;5099942;28;19912;-81
2023/05/19 05:31:23;;;;;;;;;;;17.20;51.60;;;;;;5116923;28;20002;-81
2023/05/19 05:33:48;;;;;;;;;;;17.30;51.60;;;;;;5099384;28;20193;-81
2023/05/19 05:36:14;;;;;;;;;;;17.40;51.50;;;;;;5099564;28;20200;-81
2023/05/19 05:38:39;;;;;;;;;;;17.40;51.30;;;;;;5119550;28;20003;-81
2023/05/19 05:41:05;;;;;;;;;;;17.50;51.20;;;;;;5118025;28;19908;-81
2023/05/19 05:43:30;;;;;;;;;;;17.60;51.10;;;;;;5132662;27;20263;-81
2023/05/19 05:45:56;;;;;;;;;;;17.70;50.90;;;;;;5099197;28;19908;-81
2023/05/19 05:48:22;;;;;;;;;;;17.80;50.80;;;;;;5099269;28;20052;-81
2023/05/19 05:50:47;;;;;;;;;;;17.90;50.60;;;;;;5099909;28;19908;-81
2023/05/19 05:53:20;;;;;;;;;;;18.00;50.50;;;;;;5098981;28;19916;-81
2023/05/19 05:55:46;;;;;;;;;;;18.20;50.40;;;;;;5097067;28;20190;-81
2023/05/19 05:58:13;;;;;;;;;;;18.20;50.20;;;;;;5115034;28;19947;-81
2023/05/19 06:00:42;;;;;;;;;;;18.30;50.10;;;;;;5097635;28;19904;-81
2023/05/19 06:03:08;;;;;;;;;;;18.40;50.00;;;;;;5094644;28;20384;-82
2023/05/19 06:05:34;;;;;;;;;;;18.50;50.00;;;;;;5093398;28;20044;-82
2023/05/19 06:08:00;;;;;;;;;;;18.60;50.00;;;;;;5094073;28;20006;-82
2023/05/19 06:10:27;;;;;;;;;;;18.70;49.90;;;;;;5094678;28;20044;-82
2023/05/19 06:12:53;;;;;;;;;;;18.70;49.80;;;;;;5096298;28;19908;-82
2023/05/19 06:15:18;;;;;;;;;;;18.80;49.80;;;;;;5094518;28;20098;-82
2023/05/19 06:17:44;;;;;;;;;;;18.90;49.90;;;;;;5113690;28;19967;-82
2023/05/19 06:20:11;;;;;;;;;;;19.00;49.80;;;;;;5094993;28;19908;-82
2023/05/19 06:22:37;;;;;;;;;;;19.10;49.90;;;;;;5116774;28;20003;-81
2023/05/19 06:25:03;;;;;;;;;;;19.20;49.80;;;;;;5113209;28;20292;-82
2023/05/19 06:27:35;;;;;;;;;;;19.30;49.90;;;;;;5095521;28;20073;-82
2023/05/19 06:30:00;;;;;;;;;;;19.40;49.70;;;;;;5130926;27;19918;-82
2023/05/19 06:32:26;;;;;;;;;;;19.50;49.70;;;;;;5104318;28;20060;-81
2023/05/19 06:34:55;;;;;;;;;;;19.60;49.40;;;;;;5113742;28;20338;-82
2023/05/19 06:37:21;;;;;;;;;;;19.70;49.40;;;;;;5112429;28;19919;-82
2023/05/19 06:39:50;;;;;;;;;;;19.80;49.20;;;;;;5096340;28;20115;-82
2023/05/19 06:42:15;;;;;;;;;;;20.00;49.20;;;;;;5114280;28;20219;-82
2023/05/19 06:44:41;;;;;;;;;;;20.20;49.20;;;;;;5112482;28;19908;-82
2023/05/19 06:47:06;;;;;;;;;;;20.30;49.00;;;;;;5096163;28;19907;-82
2023/05/19 06:49:37;;;;;;;;;;;20.60;48.80;;;;;;5113586;28;19908;-82
2023/05/19 06:52:02;;;;;;;;;;;20.90;48.40;;;;;;5096680;28;19918;-81
2023/05/19 06:54:28;;;;;;;;;;;21.20;48.10;;;;;;5095112;28;19908;-82
2023/05/19 06:56:53;;;;;;;;;;;21.40;47.80;;;;;;5094067;28;19939;-82
2023/05/19 06:59:21;;;;;;;;;;;21.80;47.50;;;;;;5094874;28;20327;-81
2023/05/19 07:01:46;;;;;;;;;;;22.10;47.10;;;;;;5093276;28;19914;-81
2023/05/19 07:04:12;;;;;;;;;;;22.40;46.60;;;;;;5094204;28;19908;-82
2023/05/19 07:06:37;;;;;;;;;;;22.80;46.30;;;;;;5092830;28;19911;-82
2023/05/19 07:09:04;;;;;;;;;;;23.00;45.90;;;;;;5093427;28;19907;-81
2023/05/19 07:11:31;;;;;;;;;;;23.30;45.70;;;;;;5091697;28;20094;-82
2023/05/19 07:13:56;;;;;;;;;;;23.60;45.80;;;;;;5092141;28;19907;-82
2023/05/19 07:16:22;;;;;;;;;;;23.80;45.00;;;;;;5093544;28;19943;-82
2023/05/19 07:18:47;;;;;;;;;;;24.20;44.80;;;;;;5092844;28;19924;-82
2023/05/19 07:21:13;;;;;;;;;;;24.40;44.50;;;;;;5125572;27;19912;-82
2023/05/19 07:23:38;;;;;;;;;;;24.60;44.20;;;;;;5127468;27;20157;-82
2023/05/19 07:26:25;;;;;;;;;;;24.90;44.00;;;;;;5094118;28;19958;-82
2023/05/19 07:28:51;;;;;;;;;;;25.10;43.70;;;;;;5093243;28;19908;-82
2023/05/19 07:31:16;;;;;;;;;;;25.40;43.60;;;;;;5112177;28;19957;-82
2023/05/19 07:33:42;;;;;;;;;;;25.60;43.40;;;;;;5093782;28;19922;-83
2023/05/19 07:36:08;;;;;;;;;;;25.70;43.20;;;;;;5112004;28;20185;-82
2023/05/19 07:38:33;;;;;;;;;;;25.90;43.10;;;;;;5093969;28;19908;-82
2023/05/19 07:40:59;;;;;;;;;;;26.10;42.90;;;;;;5092007;28;19904;-82
2023/05/19 07:43:37;;;;;;;;;;;26.20;42.80;;;;;;5124680;27;19915;-82
2023/05/19 07:46:03;;;;;;;;;;;26.40;42.80;;;;;;5093000;28;19919;-83
2023/05/19 07:48:29;;;;;;;;;;;26.60;42.60;;;;;;5111040;28;19962;-82
2023/05/19 07:50:55;;;;;;;;;;;26.80;42.50;;;;;;5090298;28;19908;-82
2023/05/19 07:53:22;;;;;;;;;;;27.00;42.30;;;;;;5093344;28;19908;-80
2023/05/19 07:55:50;;;;;;;;;;;27.10;42.20;;;;;;5092464;28;20064;-80
2023/05/19 07:58:16;;;;;;;;;;;27.30;42.00;;;;;;5092866;28;20307;-80
2023/05/19 08:00:42;;;;;;;;;;;27.50;41.90;;;;;;5111474;28;19947;-80
2023/05/19 08:03:24;;;;;;;;;;;27.70;41.80;;;;;;5094913;28;19933;-80
2023/05/19 08:05:50;;;;;;;;;;;27.80;41.60;;;;;;5111228;28;19912;-80
2023/05/19 08:08:18;;;;;;;;;;;28.00;41.50;;;;;;5093713;28;19916;-80
2023/05/19 08:10:53;;;;;;;;;;;28.10;41.40;;;;;;5093644;28;19915;-80
2023/05/19 08:13:30;;;;;;;;;;;28.30;41.20;;;;;;5093289;28;20135;-80
2023/05/19 08:16:00;;;;;;;;;;;28.50;41.10;;;;;;5094131;28;19968;-80
2023/05/19 08:18:32;;;;;;;;;;;28.60;41.00;;;;;;5111460;28;19912;-80
2023/05/19 08:20:57;;;;;;;;;;;28.80;40.90;;;;;;5094562;28;19943;-80
2023/05/19 08:23:30;;;;;;;;;;;29.00;40.70;;;;;;5094882;28;19914;-80
2023/05/19 08:25:58;;;;;;;;;;;29.10;40.60;;;;;;5093447;28;20277;-80
2023/05/19 08:28:30;;;;;;;;;;;29.20;40.50;;;;;;5107046;28;19908;-80
2023/05/19 08:31:04;;;;;;;;;;;29.40;40.40;;;;;;5106480;28;20044;-81
2023/05/19 08:33:29;;;;;;;;;;;29.50;40.20;;;;;;5089468;28;20042;-80
2023/05/19 08:35:56;;;;;;;;;;;29.70;40.20;;;;;;5103830;28;20356;-81
2023/05/19 08:38:22;;;;;;;;;;;29.80;40.10;;;;;;5088200;28;19907;-81
2023/05/19 08:40:48;;;;;;;;;;;29.90;40.00;;;;;;5088699;28;19911;-80
2023/05/19 08:43:13;;;;;;;;;;;30.10;39.90;;;;;;5088431;28;19915;-80
2023/05/19 08:45:44;;;;;;;;;;;30.20;39.80;;;;;;5106965;28;19907;-79
2023/05/19 08:48:10;;;;;;;;;;;30.30;39.70;;;;;;5090540;28;19907;-81
2023/05/19 08:50:38;;;;;;;;;;;30.30;39.60;;;;;;5088694;28;19907;-80
2023/05/19 08:53:11;;;;;;;;;;;30.50;39.50;;;;;;5093841;28;20006;-81
2023/05/19 08:55:46;;;;;;;;;;;30.60;39.40;;;;;;5109423;28;19908;-81
2023/05/19 08:58:14;;;;;;;;;;;30.60;39.30;;;;;;5090127;28;20424;-81
2023/05/19 09:00:39;;;;;;;;;;;30.80;39.30;;;;;;5090225;28;19908;-80
2023/05/19 09:03:06;;;;;;;;;;;30.80;39.10;;;;;;5089492;28;20132;-80
2023/05/19 09:05:31;;;;;;;;;;;30.20;39.10;;;;;;5089195;28;19916;-81
2023/05/19 09:07:57;;;;;;;;;;;30.40;39.30;;;;;;5107263;28;19915;-80
2023/05/19 09:10:23;;;;;;;;;;;30.60;39.20;;;;;;5126613;27;19908;-80
2023/05/19 09:12:50;;;;;;;;;;;30.60;39.20;;;;;;5090934;28;19907;-81
2023/05/19 09:15:18;;;;;;;;;;;30.30;39.30;;;;;;5089976;28;20300;-80
2023/05/19 09:17:46;;;;;;;;;;;29.90;39.20;;;;;;5093304;28;19908;-80
2023/05/19 09:20:15;;;;;;;;;;;29.10;39.60;;;;;;5093780;28;19934;-80
2023/05/19 09:22:50;;;;;;;;;;;28.80;39.80;;;;;;5093028;28;20312;-81
2023/05/19 09:25:31;;;;;;;;;;;28.70;40.20;;;;;;5093237;28;19922;-80
2023/05/19 09:28:07;;;;;;;;;;;28.20;40.50;;;;;;5089947;28;20320;-81
2023/05/19 09:30:34;;;;;;;;;;;28.80;40.20;;;;;;5090534;28;20097;-81
2023/05/19 09:33:07;;;;;;;;;;;29.10;40.20;;;;;;5108045;28;20045;-81
2023/05/19 09:35:33;;;;;;;;;;;28.90;39.90;;;;;;5107113;28;19943;-81
2023/05/19 09:38:02;;;;;;;;;;;28.70;39.90;;;;;;5089313;28;20111;-81
2023/05/19 09:40:31;;;;;;;;;;;28.30;40.40;;;;;;5088948;28;19911;-81
2023/05/19 09:43:04;;;;;;;;;;;28.00;40.50;;;;;;5086920;28;20091;-81
2023/05/19 09:45:30;;;;;;;;;;;27.80;40.60;;;;;;5092530;28;19911;-81
2023/05/19 09:47:55;;;;;;;;;;;27.50;40.70;;;;;;5112153;28;20323;-81
2023/05/19 09:50:21;;;;;;;;;;;27.20;40.70;;;;;;5128081;27;19908;-81
2023/05/19 09:52:47;;;;;;;;;;;26.90;41.00;;;;;;5096267;28;20277;-80
2023/05/19 09:55:12;;;;;;;;;;;26.60;41.20;;;;;;5092641;28;19918;-80
2023/05/19 09:57:39;;;;;;;;;;;26.40;41.40;;;;;;5092450;28;19912;-80
2023/05/19 10:00:16;;;;;;;;;;;26.20;41.50;;;;;;5110629;28;19976;-80
2023/05/19 10:02:45;;;;;;;;;;;26.10;41.70;;;;;;5091242;28;19915;-81
2023/05/19 10:05:21;;;;;;;;;;;25.90;41.80;;;;;;5091434;28;20197;-81
2023/05/19 10:07:50;;;;;;;;;;;25.70;42.00;;;;;;5100603;28;19912;-81
2023/05/19 10:10:16;;;;;;;;;;;25.60;42.00;;;;;;5090175;28;20217;-81
2023/05/19 10:12:45;;;;;;;;;;;25.50;41.80;;;;;;5090086;28;19930;-80
2023/05/19 10:15:12;;;;;;;;;;;25.50;42.00;;;;;;5092174;28;19915;-82
2023/05/19 10:17:48;;;;;;;;;;;25.40;42.20;;;;;;5092842;28;20231;-80
2023/05/19 10:20:17;;;;;;;;;;;25.40;41.80;;;;;;5091946;28;19947;-80
2023/05/19 10:22:47;;;;;;;;;;;25.30;42.10;;;;;;5092711;28;20206;-80
2023/05/19 10:25:14;;;;;;;;;;;25.30;42.40;;;;;;5089998;28;20131;-80
2023/05/19 10:27:43;;;;;;;;;;;25.20;42.40;;;;;;5091655;28;19912;-81
2023/05/19 10:30:12;;;;;;;;;;;25.10;42.40;;;;;;5090616;28;19974;-81
2023/05/19 10:32:39;;;;;;;;;;;25.10;42.90;;;;;;5091370;28;19908;-80
2023/05/19 10:35:22;;;;;;;;;;;25.00;42.60;;;;;;5108282;28;19918;-81
2023/05/19 10:37:48;;;;;;;;;;;24.90;42.70;;;;;;5091948;28;19946;-80
2023/05/19 10:40:34;;;;;;;;;;;24.80;42.90;;;;;;5092084;28;19953;-79
2023/05/19 10:43:17;;;;;;;;;;;24.80;42.90;;;;;;5087078;28;19908;-81
2023/05/19 10:45:46;;;;;;;;;;;24.60;43.10;;;;;;5109589;28;19908;-80
2023/05/19 10:48:15;;;;;;;;;;;24.60;43.30;;;;;;5106829;28;19919;-80
2023/05/19 10:50:44;;;;;;;;;;;24.50;43.40;;;;;;5089495;28;19915;-80
2023/05/19 10:53:18;;;;;;;;;;;24.40;43.50;;;;;;5107405;28;19996;-81
2023/05/19 10:55:45;;;;;;;;;;;24.30;43.50;;;;;;5088499;28;19918;-80
2023/05/19 10:58:11;;;;;;;;;;;24.30;43.70;;;;;;5089165;28;20182;-81
2023/05/19 11:00:38;;;;;;;;;;;24.20;43.70;;;;;;5108085;28;20198;-80
2023/05/19 11:03:22;;;;;;;;;;;24.20;43.80;;;;;;5090785;28;19968;-81
2023/05/19 11:06:17;;;;;;;;;;;24.20;43.90;;;;;;5109432;28;19943;-81
2023/05/19 11:08:42;;;;;;;;;;;24.10;43.80;;;;;;5083596;28;19916;-81
2023/05/19 11:11:18;;;;;;;;;;;24.00;44.00;;;;;;5095171;28;20236;-81
2023/05/19 11:14:12;;;;;;;;;;;24.00;44.00;;;;;;5074780;28;19915;-81
2023/05/19 11:16:41;;;;;;;;;;;23.90;44.00;;;;;;5080274;28;20012;-82
2023/05/19 11:19:25;;;;;;;;;;;23.90;44.10;;;;;;5093340;28;20014;-84
2023/05/19 11:22:19;;;;;;;;;;;23.90;43.70;;;;;;5088190;28;20040;-81
2023/05/19 11:24:48;;;;;;;;;;;23.90;44.20;;;;;;5066133;28;19933;-81
2023/05/19 11:27:34;;;;;;;;;;;23.80;44.30;;;;;;5070820;28;20156;-82
2023/05/19 11:30:00;;;;;;;;;;;23.80;44.30;;;;;;5102755;28;20054;-81
2023/05/19 11:32:27;;;;;;;;;;;23.70;44.00;;;;;;5069425;28;19951;-82
2023/05/19 11:34:54;;;;;;;;;;;23.70;44.10;;;;;;5085963;28;19916;-82
2023/05/19 11:37:20;;;;;;;;;;;23.70;44.30;;;;;;5086961;28;19927;-80
2023/05/19 11:39:46;;;;;;;;;;;23.60;44.50;;;;;;5065561;28;19908;-80
2023/05/19 11:42:12;;;;;;;;;;;23.60;44.50;;;;;;5069769;28;19908;-82
2023/05/19 11:44:40;;;;;;;;;;;23.60;44.60;;;;;;5068759;28;19962;-81
2023/05/19 11:47:05;;;;;;;;;;;23.50;44.70;;;;;;5069968;28;19912;-82
2023/05/19 11:49:31;;;;;;;;;;;23.50;44.70;;;;;;5069479;28;19908;-81
2023/05/19 11:52:04;;;;;;;;;;;23.50;44.80;;;;;;5102008;28;20257;-81
2023/05/19 11:54:31;;;;;;;;;;;23.50;44.70;;;;;;5068715;28;20337;-81
2023/05/19 11:57:01;;;;;;;;;;;23.40;44.90;;;;;;5066785;28;19965;-80
2023/05/19 11:59:33;;;;;;;;;;;23.40;45.00;;;;;;5083300;28;19916;-81
2023/05/19 12:02:18;;;;;;;;;;;23.40;45.10;;;;;;5071406;28;20004;-80
2023/05/19 12:04:44;;;;;;;;;;;23.40;45.10;;;;;;5101721;28;19912;-81
2023/05/19 12:07:10;;;;;;;;;;;23.30;44.90;;;;;;5065882;28;19919;-81
2023/05/19 12:09:36;;;;;;;;;;;23.30;44.90;;;;;;5066065;28;20258;-82
2023/05/19 12:12:02;;;;;;;;;;;23.30;45.10;;;;;;5068096;28;20285;-80
2023/05/19 12:14:28;;;;;;;;;;;23.30;44.90;;;;;;5102939;28;19915;-81
2023/05/19 12:16:54;;;;;;;;;;;23.30;44.90;;;;;;5069085;28;20132;-81
2023/05/19 12:19:22;;;;;;;;;;;23.30;45.20;;;;;;5066700;28;20012;-81
2023/05/19 12:21:55;;;;;;;;;;;23.20;45.20;;;;;;5070345;28;19909;-79
2023/05/19 12:24:21;;;;;;;;;;;23.20;45.30;;;;;;5100094;28;20107;-81
2023/05/19 12:26:49;;;;;;;;;;;23.20;45.30;;;;;;5067846;28;19978;-81
2023/05/19 12:29:14;;;;;;;;;;;23.10;45.50;;;;;;5101294;28;20301;-81
2023/05/19 12:31:40;;;;;;;;;;;23.20;45.40;;;;;;5068140;28;19908;-81
2023/05/19 12:34:05;;;;;;;;;;;23.10;45.40;;;;;;5100985;28;20081;-81
2023/05/19 12:36:31;;;;;;;;;;;23.10;45.60;;;;;;5070628;28;20189;-81
2023/05/19 12:38:56;;;;;;;;;;;23.10;45.50;;;;;;5085808;28;20159;-81
2023/05/19 12:41:33;;;;;;;;;;;23.00;45.60;;;;;;5066214;28;19912;-81
2023/05/19 12:44:18;;;;;;;;;;;23.00;45.70;;;;;;5105623;28;19909;-81
2023/05/19 12:46:44;;;;;;;;;;;23.00;45.80;;;;;;5075112;28;19916;-81
2023/05/19 12:49:19;;;;;;;;;;;23.00;45.70;;;;;;5107664;28;19908;-82
2023/05/19 12:51:50;;;;;;;;;;;22.90;45.80;;;;;;5077089;28;19939;-80
2023/05/19 12:54:22;;;;;;;;;;;22.90;45.70;;;;;;5109083;28;20152;-79
2023/05/19 12:56:51;;;;;;;;;;;22.90;45.70;;;;;;5071852;28;20024;-80
2023/05/19 12:59:20;;;;;;;;;;;22.90;45.80;;;;;;5072580;28;19955;-80
2023/05/19 13:01:53;;;;;;;;;;;22.80;45.80;;;;;;5089234;28;19909;-81
2023/05/19 13:04:32;;;;;;;;;;;22.80;45.70;;;;;;5088852;28;19989;-81
2023/05/19 13:07:04;;;;;;;;;;;22.80;45.70;;;;;;5071256;28;19912;-81
2023/05/19 13:09:41;;;;;;;;;;;22.80;45.70;;;;;;5104767;28;19918;-81
2023/05/19 13:12:06;;;;;;;;;;;22.70;45.70;;;;;;5071730;28;20386;-81
2023/05/19 13:14:32;;;;;;;;;;;22.70;45.70;;;;;;5088996;28;20478;-80
2023/05/19 13:17:19;;;;;;;;;;;22.70;45.90;;;;;;5071235;28;20106;-80
2023/05/19 13:19:59;;;;;;;;;;;22.70;45.80;;;;;;5089265;28;19919;-81
2023/05/19 13:22:35;;;;;;;;;;;22.70;46.00;;;;;;5076791;28;20004;-81
2023/05/19 13:25:01;;;;;;;;;;;22.70;45.80;;;;;;5071226;28;19908;-80
2023/05/19 13:27:26;;;;;;;;;;;22.60;45.70;;;;;;5068782;28;19973;-81
2023/05/19 13:29:52;;;;;;;;;;;22.60;45.80;;;;;;5085934;28;19969;-80
2023/05/19 13:32:19;;;;;;;;;;;22.60;45.70;;;;;;5069044;28;19918;-81
2023/05/19 13:34:44;;;;;;;;;;;22.60;45.70;;;;;;5065563;28;19915;-81
2023/05/19 13:37:10;;;;;;;;;;;22.60;45.80;;;;;;5068103;28;20177;-81
2023/05/19 13:39:46;;;;;;;;;;;22.60;45.90;;;;;;5071113;28;20002;-82
2023/05/19 13:42:37;;;;;;;;;;;22.60;45.70;;;;;;5090228;28;19977;-80
2023/05/19 13:45:03;;;;;;;;;;;22.60;45.70;;;;;;5072110;28;19908;-81
2023/05/19 13:47:29;;;;;;;;;;;22.60;45.70;;;;;;5091345;28;19922;-82
2023/05/19 13:50:11;;;;;;;;;;;22.50;45.70;;;;;;5073749;28;19916;-81
2023/05/19 13:52:49;;;;;;;;;;;22.50;45.70;;;;;;5071640;28;19923;-81
2023/05/19 13:55:15;;;;;;;;;;;22.50;45.70;;;;;;5107340;28;20170;-80
2023/05/19 13:57:40;;;;;;;;;;;22.50;45.70;;;;;;5090765;28;19919;-82
2023/05/19 14:00:06;;;;;;;;;;;22.50;45.70;;;;;;5094860;28;19911;-80
2023/05/19 14:02:32;;;;;;;;;;;22.50;45.70;;;;;;5089108;28;19907;-81
2023/05/19 14:04:58;;;;;;;;;;;22.50;45.70;;;;;;5090650;28;20108;-81
2023/05/19 14:07:24;;;;;;;;;;;22.40;45.60;;;;;;5093209;28;19919;-81
2023/05/19 14:09:51;;;;;;;;;;;22.40;45.60;;;;;;5094025;28;19920;-80
2023/05/19 14:12:17;;;;;;;;;;;22.40;45.60;;;;;;5086079;28;19915;-80
2023/05/19 14:14:42;;;;;;;;;;;22.40;45.60;;;;;;5100100;28;19915;-81
2023/05/19 14:17:13;;;;;;;;;;;22.40;45.70;;;;;;5098312;28;19914;-81
2023/05/19 14:19:38;;;;;;;;;;;22.40;45.70;;;;;;5111657;28;19908;-81
2023/05/19 14:22:04;;;;;;;;;;;22.40;45.60;;;;;;5093390;28;19918;-80
2023/05/19 14:24:30;;;;;;;;;;;22.30;45.60;;;;;;5110674;28;19962;-80